createdAt,value
2022-10-18T14:36:19.293Z,100704.59
2022-10-18T14:38:23.085Z,100729.84
2022-10-18T14:40:42.894Z,100687.78
2022-10-18T14:42:55.293Z,100693.09
2022-10-18T14:44:57.024Z,100672.03
2022-10-18T14:47:11.873Z,100681.41
2022-10-18T14:49:22.336Z,100688.44
2022-10-18T14:51:24.737Z,100667.13
2022-10-18T14:53:35.909Z,100698.34
2022-10-18T14:55:45.350Z,100658.44
2022-10-18T14:57:47.304Z,100661.13
2022-10-18T14:59:57.047Z,100665.44
2022-10-18T15:02:08.337Z,100670.69
2022-10-18T15:04:11.803Z,100678.72
2022-10-18T15:06:22.351Z,100685.38
2022-10-18T15:08:33.445Z,100670.63
2022-10-18T15:10:35.584Z,100696.19
2022-10-18T15:13:04.293Z,100706.41
2022-10-18T15:15:09.358Z,100718.38
2022-10-18T15:17:23.964Z,100680.53
2022-10-18T15:19:39.508Z,100679.44
2022-10-18T15:22:31.257Z,100667.06
2022-10-18T15:24:26.893Z,100670.72
2022-10-18T15:26:30.585Z,100669.78
2022-10-18T15:28:46.407Z,100684.16
2022-10-18T15:30:48.067Z,100691.50
2022-10-18T15:32:52.732Z,100702.88
2022-10-18T15:35:01.383Z,100645.13
2022-10-18T15:37:16.690Z,100697.00
2022-10-18T15:39:23.878Z,100674.63
2022-10-18T15:41:50.413Z,100667.09
2022-10-18T15:43:52.014Z,100642.84
2022-10-18T15:46:00.061Z,100678.59
2022-10-18T15:48:17.384Z,100691.47
2022-10-18T15:50:35.474Z,100683.88
2022-10-18T15:52:40.737Z,100647.56
2022-10-18T15:56:56.653Z,100727.69
2022-10-18T15:59:07.424Z,100696.34
2022-10-18T16:01:22.712Z,100744.84
2022-10-18T16:03:25.207Z,100691.63
2022-10-18T16:05:33.434Z,100690.47
2022-10-18T16:07:35.392Z,100700.38
2022-10-18T16:09:37.612Z,100719.13
2022-10-18T16:11:45.465Z,100667.84
2022-10-18T16:13:47.456Z,100682.94
2022-10-18T16:15:49.153Z,100722.59
2022-10-18T16:17:57.442Z,100716.69
2022-10-18T16:19:59.087Z,100700.72
2022-10-18T16:22:05.978Z,100701.22
2022-10-18T16:24:15.444Z,100682.38
2022-10-18T16:26:19.142Z,100719.84
2022-10-18T16:28:24.404Z,100730.69
2022-10-18T16:30:39.484Z,100699.97
2022-10-18T16:32:41.144Z,100709.00
2022-10-18T16:34:42.748Z,100719.84
2022-10-18T16:36:51.464Z,100728.72
2022-10-18T16:38:55.443Z,100703.69
2022-10-18T16:40:59.872Z,100726.16
2022-10-18T16:43:08.470Z,100746.97
2022-10-18T16:45:10.212Z,100714.03
2022-10-18T16:47:18.505Z,100757.78
2022-10-18T16:49:24.093Z,100715.88
2022-10-18T16:51:26.836Z,100718.28
2022-10-18T16:53:35.486Z,100724.53
2022-10-18T16:55:38.498Z,100727.75
2022-10-18T16:57:40.090Z,100709.94
2022-10-18T16:59:48.479Z,100692.44
2022-10-18T17:01:50.126Z,100695.94
2022-10-18T17:03:52.882Z,100683.31
2022-10-18T17:06:01.529Z,100700.47
2022-10-18T17:08:03.143Z,100750.47
2022-10-18T17:10:05.182Z,100711.22
2022-10-18T17:12:13.502Z,100725.78
2022-10-18T17:14:15.104Z,100742.38
2022-10-18T17:16:19.678Z,100748.84
2022-10-18T17:18:32.526Z,100766.41
2022-10-18T17:20:34.124Z,100778.22
2022-10-18T17:22:35.899Z,100758.84
2022-10-18T17:24:44.527Z,100748.06
2022-10-18T17:26:46.147Z,100776.50
2022-10-18T17:28:53.053Z,100780.28
2022-10-18T17:31:01.530Z,100775.34
2022-10-18T17:33:03.195Z,100767.56
2022-10-18T17:35:05.459Z,100796.53
2022-10-18T17:37:14.558Z,100777.94
2022-10-18T17:39:16.163Z,100798.78
2022-10-18T17:41:17.817Z,100747.63
2022-10-18T17:43:25.543Z,100797.22
2022-10-18T17:45:27.330Z,100787.41
2022-10-18T17:47:29.049Z,100806.81
2022-10-18T17:49:37.561Z,100782.44
2022-10-18T17:51:40.627Z,100760.38
2022-10-18T17:53:42.557Z,100798.94
2022-10-18T17:55:50.590Z,100778.09
2022-10-18T17:57:52.299Z,100791.56
2022-10-18T17:59:55.386Z,100772.63
2022-10-18T18:02:03.568Z,100815.38
2022-10-18T18:04:05.297Z,100793.34
2022-10-18T18:06:17.237Z,100780.84
2022-10-18T18:08:25.589Z,100755.91
2022-10-18T18:10:27.307Z,100808.00
2022-10-18T18:12:29.060Z,100774.72
2022-10-18T18:14:37.596Z,100801.28
2022-10-18T18:16:42.007Z,100805.53
2022-10-18T18:18:44.133Z,100785.16
2022-10-18T18:20:58.601Z,100764.22
2022-10-18T18:23:00.781Z,100781.06
2022-10-18T18:25:02.371Z,100800.34
2022-10-18T18:27:10.611Z,100777.69
2022-10-18T18:29:13.497Z,100782.03
2022-10-18T18:31:18.179Z,100811.72
2022-10-18T18:33:26.633Z,100777.44
2022-10-18T18:35:28.248Z,100772.78
2022-10-18T18:37:29.874Z,100805.28
2022-10-18T18:39:41.641Z,100782.03
2022-10-18T18:41:43.382Z,100820.66
2022-10-18T18:43:49.809Z,100775.28
2022-10-18T18:45:58.668Z,100771.03
2022-10-18T18:48:00.271Z,100789.31
2022-10-18T18:50:02.470Z,100782.28
2022-10-18T18:52:10.662Z,100824.91
2022-10-18T18:54:14.435Z,100768.44
2022-10-18T18:56:19.065Z,100818.06
2022-10-18T18:58:27.651Z,100784.69
2022-10-18T19:00:29.254Z,100749.19
2022-10-18T19:02:30.897Z,100810.41
2022-10-18T19:04:39.677Z,100768.63
2022-10-18T19:06:46.295Z,100769.75
2022-10-18T19:08:49.044Z,100821.31
2022-10-18T19:10:56.680Z,100770.22
2022-10-18T19:12:58.577Z,100772.31
2022-10-18T19:15:00.171Z,100821.84
2022-10-18T19:17:08.699Z,100776.38
2022-10-18T19:19:16.049Z,100804.38
2022-10-18T19:21:18.143Z,100778.41
2022-10-18T19:25:33.203Z,100798.09
2022-10-18T19:27:35.599Z,100785.72
2022-10-18T19:29:45.670Z,100767.03
2022-10-18T19:31:48.471Z,100805.78
2022-10-18T19:33:59.317Z,100757.28
2022-10-18T19:36:07.694Z,100784.09
2022-10-18T19:38:09.341Z,100759.31
2022-10-18T19:40:11.201Z,100762.50
2022-10-18T19:42:25.069Z,100763.69
2022-10-18T19:44:30.510Z,100745.94
2022-10-18T19:46:32.194Z,100733.59
2022-10-18T19:48:40.737Z,100776.13
2022-10-18T19:50:42.408Z,100749.44
2022-10-18T19:52:44.013Z,100777.88
2022-10-18T19:54:51.718Z,100780.16
2022-10-18T19:56:53.389Z,100765.69
2022-10-18T19:58:56.762Z,100754.38
2022-10-18T20:01:06.771Z,100778.00
2022-10-18T20:03:08.550Z,100796.06
2022-10-18T20:05:10.615Z,100775.56
2022-10-18T20:07:18.751Z,100762.22
2022-10-18T20:09:21.642Z,100758.75
2022-10-18T20:11:27.136Z,100806.41
2022-10-18T20:13:35.750Z,100755.09
2022-10-18T20:15:37.381Z,100790.84
2022-10-18T20:17:39.180Z,100799.50
2022-10-18T20:19:47.758Z,100771.88
2022-10-18T20:21:49.351Z,100764.03
2022-10-18T20:23:50.990Z,100777.56
2022-10-18T20:26:07.784Z,100781.38
2022-10-18T20:28:22.949Z,100762.94
2022-10-18T20:30:24.579Z,100765.94
2022-10-18T20:32:32.804Z,100773.06
2022-10-18T20:34:34.456Z,100787.19
2022-10-18T20:36:37.196Z,100759.78
2022-10-18T20:38:46.783Z,100793.00
2022-10-18T20:40:48.408Z,100793.72
2022-10-18T20:42:51.720Z,100791.81
2022-10-18T20:44:59.827Z,100803.41
2022-10-18T20:47:01.463Z,100765.41
2022-10-18T20:49:04.698Z,100752.31
2022-10-18T20:51:14.794Z,100729.34
2022-10-18T20:53:16.395Z,100778.66
2022-10-18T20:55:18.878Z,100782.22
2022-10-18T20:57:26.781Z,100783.50
2022-10-18T20:59:28.403Z,100788.63
2022-10-18T21:01:32.211Z,100806.13
2022-10-18T21:03:42.782Z,100800.81
2022-10-18T21:05:44.312Z,100795.44
2022-10-18T21:07:45.881Z,100793.31
2022-10-18T21:09:53.889Z,100787.28
2022-10-18T21:11:56.198Z,100816.88
2022-10-18T21:14:02.080Z,100786.97
2022-10-18T21:16:11.815Z,100775.69
2022-10-18T21:18:13.345Z,100796.16
2022-10-18T21:20:14.981Z,100808.97
2022-10-18T21:22:22.833Z,100806.81
2022-10-18T21:24:25.840Z,100756.63
2022-10-18T21:26:28.285Z,100774.72
2022-10-18T21:28:36.843Z,100759.84
2022-10-18T21:30:38.535Z,100754.03
2022-10-18T21:32:40.132Z,100762.91
2022-10-18T21:34:48.052Z,100766.31
2022-10-18T21:36:49.736Z,100758.16
2022-10-18T21:38:52.190Z,100764.09
2022-10-18T21:40:59.840Z,100757.44
2022-10-18T21:43:01.881Z,100761.59
2022-10-18T21:45:09.837Z,100780.28
2022-10-18T21:47:11.352Z,100789.13
2022-10-18T21:49:14.145Z,100777.56
2022-10-18T21:51:24.836Z,100752.00
2022-10-18T21:53:26.381Z,100773.19
2022-10-18T21:55:27.934Z,100781.84
2022-10-18T21:59:42.336Z,100760.75
2022-10-18T22:01:45.113Z,100762.91
2022-10-18T22:03:55.855Z,100779.69
2022-10-18T22:06:02.101Z,100758.88
2022-10-18T22:08:04.525Z,100793.28
2022-10-18T22:10:12.894Z,100759.56
2022-10-18T22:12:14.737Z,100769.38
2022-10-18T22:14:16.591Z,100775.06
2022-10-18T22:16:24.891Z,100750.44
2022-10-18T22:18:26.404Z,100749.50
2022-10-18T22:20:28.213Z,100778.59
2022-10-18T22:22:35.888Z,100751.75
2022-10-18T22:24:37.515Z,100771.63
2022-10-18T22:26:41.936Z,100777.59
2022-10-18T22:40:04.974Z,100731.97
2022-10-18T22:42:06.620Z,100733.06
2022-10-18T22:44:09.011Z,100760.69
2022-10-18T22:46:19.942Z,100714.84
2022-10-18T22:48:21.480Z,100729.75
2022-10-18T22:50:23.052Z,100712.09
2022-10-18T22:52:31.049Z,100750.38
2022-10-18T22:54:32.827Z,100733.59
2022-10-18T22:56:34.431Z,100731.00
2022-10-18T22:58:42.942Z,100703.44
2022-10-18T23:00:44.779Z,100743.50
2022-10-18T23:02:49.005Z,100728.78
2022-10-18T23:04:56.960Z,100693.56
2022-10-18T23:06:58.694Z,100728.28
2022-10-18T23:09:02.362Z,100721.16
2022-10-18T23:11:09.978Z,100752.56
2022-10-18T23:13:11.577Z,100726.25
2022-10-18T23:15:13.239Z,100770.19
2022-10-18T23:17:20.952Z,100745.94
2022-10-18T23:19:22.560Z,100763.69
2022-10-18T23:21:26.165Z,100755.75
2022-10-18T23:23:36.962Z,100730.91
2022-10-18T23:25:38.964Z,100768.38
2022-10-18T23:27:40.670Z,100745.50
2022-10-18T23:29:48.959Z,100739.94
2022-10-18T23:31:50.540Z,100759.41
2022-10-18T23:33:54.352Z,100743.00
2022-10-18T23:36:01.994Z,100723.00
2022-10-18T23:38:03.595Z,100734.94
2022-10-18T23:40:05.578Z,100757.13
2022-10-18T23:42:13.983Z,100755.66
2022-10-18T23:44:15.616Z,100750.25
2022-10-18T23:46:18.266Z,100730.25
2022-10-18T23:48:25.997Z,100703.16
2022-10-18T23:50:27.535Z,100744.44
2022-10-18T23:52:29.199Z,100756.72
2022-10-18T23:54:37.018Z,100744.59
